Flight Track Log - Related Links

Times and Time Zones

All times are in EDT time to prevent confusion due to time zone crossing. See the N386JC flight status page for this flight to view local times or setup timezone preferences in your user account.

Time Position Orientation Groundspeed Altitude Reporting Facility
EDT Latitude Longitude Course Direction KTS MPH feet Rate Location/Type
Sun 10:06:51 AM 40.8928 -81.4753 209° Southwest 209 241 2,800  Level Indianapolis Center
Sun 10:08:02 AM 40.8194 -81.5289 209° Southwest 259 298 7,200 3,429 Climbing Cleveland Center
Sun 10:09:04 AM 40.7483 -81.5711 204° Southwest 274 315 10,400 3,532 Climbing Cleveland Center
Sun 10:10:06 AM 40.6728 -81.6164 204° Southwest 292 336 14,500 3,632 Climbing Cleveland Center
Sun 10:10:58 AM 40.6039 -81.6583 205° Southwest 317 365 17,300 3,000 Climbing Indianapolis Center
Sun 10:12:00 AM 40.4997 -81.7214 205° Southwest 347 399 20,200 2,710 Climbing Indianapolis Center
Sun 10:13:02 AM 40.4467 -81.8419 240° Southwest 377 434 22,900 2,468 Climbing Indianapolis Center
Sun 10:14:04 AM 40.3956 -81.9700 242° Southwest 389 448 25,300 2,274 Climbing Indianapolis Center
Sun 10:15:06 AM 40.3431 -82.1042 243° Southwest 406 467 27,600 2,081 Climbing Indianapolis Center
Sun 10:16:08 AM 40.2881 -82.2425 243° Southwest 421 484 29,600 2,049 Climbing Indianapolis Center
Sun 10:17:09 AM 40.2286 -82.3933 243° Southwest 432 497 31,800 2,049 Climbing Indianapolis Center
Sun 10:18:11 AM 40.1731 -82.5325 242° Southwest 433 498 33,800 1,790 Climbing Indianapolis Center
Sun 10:19:13 AM 40.0989 -82.6553 232° Southwest 432 497 35,500 1,645 Climbing Indianapolis Center
Sun 10:20:15 AM 40.0136 -82.7661 225° Southwest 432 497 37,200 1,210 Climbing Indianapolis Center
Sun 10:21:17 AM 39.9275 -82.8775 225° Southwest 434 499 38,000 387 Climbing Indianapolis Center
Sun 10:22:19 AM 39.8386 -82.9919 225° Southwest 445 512 38,000  Level Indianapolis Center
Sun 10:23:20 AM 39.7503 -83.1058 225° Southwest 445 512 38,000  Level Indianapolis Center
Sun 10:24:22 AM 39.6439 -83.2408 224° Southwest 439 505 38,000 435 Level Indianapolis Center
Sun 10:25:24 AM 39.5569 -83.3528 225° Southwest 436 502 38,900 1,161 Climbing Indianapolis Center
Sun 10:26:26 AM 39.4722 -83.4611 225° Southwest 429 494 40,400 1,210 Climbing Indianapolis Center
Sun 10:27:28 AM 39.3894 -83.5675 225° Southwest 420 483 41,400 871 Climbing Indianapolis Center
Sun 10:28:30 AM 39.3061 -83.6728 224° Southwest 418 481 42,200 634 Climbing Indianapolis Center
Sun 10:29:31 AM 39.2222 -83.7781 224° Southwest 420 483 42,700 390 Climbing Indianapolis Center
Sun 10:30:33 AM 39.1383 -83.8850 225° Southwest 423 487 43,000 145 Climbing Indianapolis Center
Sun 10:31:35 AM 39.0522 -83.9931 224° Southwest 430 495 43,000  Level Indianapolis Center
Sun 10:32:37 AM 38.9450 -84.1258 224° Southwest 444 511 43,000  Level Indianapolis Center
Sun 10:33:39 AM 38.8564 -84.2356 224° Southwest 444 511 43,000  Level Indianapolis Center
Sun 10:39:03 AM 38.3699 -84.8314 224° Southwest 437 503 43,000  Level FlightAware ADS-B
Sun 10:39:39 AM 38.3171 -84.8956 224° Southwest 437 503 43,000  Level FlightAware ADS-B
Sun 10:40:09 AM 38.2729 -84.9490 223° Southwest 437 503 43,000  Level FlightAware ADS-B
Sun 10:40:54 AM 38.2082 -85.0272 224° Southwest 438 504 43,000  Level FlightAware ADS-B
Sun 10:41:26 AM 38.1612 -85.0836 223° Southwest 437 503 43,000  Level FlightAware ADS-B
Sun 10:41:57 AM 38.1144 -85.1401 224° Southwest 438 504 43,000  Level FlightAware ADS-B
Sun 10:42:27 AM 38.0704 -85.1930 223° Southwest 437 503 43,000  Level FlightAware ADS-B
Sun 10:43:04 AM 38.0175 -85.2563 223° Southwest 438 504 43,000  Level FlightAware ADS-B
Sun 10:44:54 AM 37.8554 -85.4496 223° Southwest 436 502 43,000  Level FlightAware ADS-B
Sun 10:45:29 AM 37.8032 -85.5117 223° Southwest 435 501 43,000  Level FlightAware ADS-B
Sun 10:46:02 AM 37.7554 -85.5683 223° Southwest 435 501 43,000  Level FlightAware ADS-B
Sun 10:46:33 AM 37.7102 -85.6219 223° Southwest 432 497 43,000  Level FlightAware ADS-B
Sun 10:47:08 AM 37.6586 -85.6829 223° Southwest 433 498 43,000  Level FlightAware ADS-B
Sun 10:49:14 AM 37.4760 -85.8976 223° Southwest 430 495 43,000  Level FlightAware ADS-B
Sun 10:49:53 AM 37.4328 -85.9508 223° Southwest 436 502 43,000  Level Memphis Center
Sun 10:50:53 AM 37.3447 -86.0497 222° Southwest 436 502 43,000  Level Memphis Center
Sun 10:51:53 AM 37.2586 -86.1508 223° Southwest 430 495 43,000  Level Memphis Center
Sun 10:58:00 AM 36.7132 -86.7787 223° Southwest 424 488 43,000  Level FlightAware ADS-B
Sun 10:58:32 AM 36.6671 -86.8313 222° Southwest 423 487 43,000  Level FlightAware ADS-B
Sun 11:03:48 AM 36.2114 -87.3449 222° Southwest 423 487 43,000  Level FlightAware ADS-B
Sun 11:04:18 AM 36.1673 -87.3943 222° Southwest 424 488 43,000  Level FlightAware ADS-B
Sun 11:04:57 AM 36.1105 -87.4576 222° Southwest 424 488 43,000  Level FlightAware ADS-B
Sun 11:05:55 AM 36.0262 -87.5515 222° Southwest 426 490 43,000  Level FlightAware ADS-B
Sun 11:06:25 AM 35.9822 -87.6003 222° Southwest 427 491 43,000  Level FlightAware ADS-B
Sun 11:07:53 AM 35.8558 -87.7447 222° Southwest 429 494 43,000  Level Memphis Center
Sun 11:08:53 AM 35.7681 -87.8394 221° Southwest 429 494 43,000  Level Memphis Center
Sun 11:09:53 AM 35.6883 -87.9261 221° Southwest 429 494 43,000  Level Memphis Center
Sun 11:10:53 AM 35.6008 -88.0258 223° Southwest 429 494 43,000  Level Memphis Center
Sun 11:11:53 AM 35.4978 -88.1053 212° Southwest 429 494 43,000  Level Memphis Center
Sun 11:12:53 AM 35.3803 -88.1822 208° Southwest 435 501 43,000  Level Memphis Center
Sun 11:13:53 AM 35.2689 -88.2539 208° Southwest 440 506 43,000  Level Memphis Center
Sun 11:14:53 AM 35.1617 -88.3225 208° Southwest 446 513 43,000  Level Memphis Center
Sun 11:15:53 AM 35.0522 -88.3936 208° Southwest 446 513 43,000  Level Memphis Center
Sun 11:16:53 AM 34.9447 -88.4622 208° Southwest 446 513 43,000  Level Memphis Center
Sun 11:17:53 AM 34.8414 -88.5200 205° Southwest 446 513 43,000  Level Memphis Center
Sun 11:18:53 AM 34.7339 -88.5906 208° Southwest 438 504 43,000 -200 Level Memphis Center
Sun 11:19:53 AM 34.6242 -88.6561 206° Southwest 438 504 42,600  Descending Memphis Center
Sun 11:20:53 AM 34.5086 -88.7389 211° Southwest 444 511 43,000 -2,050 Climbing Memphis Center
Sun 11:21:53 AM 34.3967 -88.8092 207° Southwest 449 517 38,500 -3,250 Descending Memphis Center
Sun 11:22:53 AM 34.2847 -88.8714 205° Southwest 449 517 36,500 -1,750 Descending Memphis Center
Sun 11:23:53 AM 34.1750 -88.9411 208° Southwest 449 517 35,000 -1,550 Descending Memphis Center
Sun 11:24:53 AM 34.0653 -89.0081 207° Southwest 444 511 33,400 -1,400 Descending Memphis Center
Sun 11:25:53 AM 33.9594 -89.0750 208° Southwest 439 505 32,200 -1,600 Descending Memphis Center
Sun 11:26:53 AM 33.8494 -89.1417 207° Southwest 433 498 30,200 -2,050 Descending Memphis Center
Sun 11:27:53 AM 33.7542 -89.2078 210° Southwest 438 504 28,100 -2,150 Descending Memphis Center
Sun 11:28:53 AM 33.6419 -89.2742 206° Southwest 438 504 25,900 -1,700 Descending Memphis Center
Sun 11:29:53 AM 33.5342 -89.3431 208° Southwest 445 512 24,700 -950 Descending Memphis Center
Sun 11:30:53 AM 33.4239 -89.4089 206° Southwest 445 512 24,000 -350 Descending Memphis Center
Sun 11:31:53 AM 33.3181 -89.4747 207° Southwest 440 506 24,000 -700 Level Memphis Center
Sun 11:32:53 AM 33.2161 -89.5353 206° Southwest 428 493 22,600 -2,550 Descending Memphis Center
Sun 11:33:53 AM 33.1183 -89.5933 206° Southwest 416 479 18,900 -3,300 Descending Memphis Center
Sun 11:34:53 AM 33.0206 -89.6511 206° Southwest 404 465 16,000 -2,950 Descending Memphis Center
Sun 11:35:53 AM 32.9292 -89.7064 207° Southwest 385 443 13,000 -2,300 Descending Memphis Center
Sun 11:36:53 AM 32.8458 -89.7564 207° Southwest 363 418 11,400 -1,700 Descending Memphis Center
Sun 11:37:53 AM 32.7689 -89.8039 207° Southwest 331 381 9,600 -2,350 Descending Memphis Center
Sun 11:38:53 AM 32.6939 -89.8489 207° Southwest 314 361 6,700 -1,800 Descending Memphis Center
Sun 11:39:53 AM 32.6231 -89.8714 195° South 290 334 6,000 -500 Descending Memphis Center
Sun 11:40:53 AM 32.5561 -89.8867 191° South 264 304 5,700 -750 Descending Memphis Center
Sun 11:41:53 AM 32.4894 -89.9017 191° South 251 289 4,500 -1,200 Descending Memphis Center
Sun 11:42:53 AM 32.4228 -89.9192 192° South 251 289 3,300 -1,000 Descending Memphis Center
Sun 11:43:53 AM 32.3644 -89.9492 203° Southwest 241 277 2,500 -350 Descending Memphis Center
Sun 11:44:53 AM 32.3100 -89.9689 197° South 226 260 2,600 -200 Climbing Memphis Center
Sun 11:45:53 AM 32.2683 -89.9936 207° Southwest 194 223 2,100 -650 Descending Memphis Center
Sun 11:46:53 AM 32.2644 -90.0453 265° West 159 183 1,300 -700 Descending Memphis Center
Sun 11:47:53 AM 32.2978 -90.0647 334° Northwest 104 120 700 -600 Descending Memphis Center

Login

Don't have an account? Register now (free) for customized features, flight alerts, and more!